Time;durP1;ratioP1;P1;durP2;ratioP2;P2;SDS_P1;SDS_P2;PMS_P1;PMS_P2;Temp;Humidity;BMP_temperature;BMP_pressure;BME280_temperature;BME280_humidity;BME280_pressure;Samples;Min_cycle;Max_cycle;Signal;HPM_P1;HPM_P2
2021/08/20 00:00:18;;;;;;;13.13;6.57;;;;;;;;;;4995109;28;20035;-43
2021/08/20 00:02:44;;;;;;;21.95;12.15;;;;;;;;;;4995186;28;20023;-43
2021/08/20 00:05:11;;;;;;;15.50;7.30;;;;;;;;;;4995250;28;20105;-41
2021/08/20 00:07:37;;;;;;;14.95;7.32;;;;;;;;;;4995064;28;20034;-42
2021/08/20 00:10:04;;;;;;;16.17;8.82;;;;;;;;;;4994740;28;20042;-42
2021/08/20 00:12:30;;;;;;;20.48;11.02;;;;;;;;;;4994577;28;20042;-41
2021/08/20 00:14:56;;;;;;;20.90;12.02;;;;;;;;;;4994928;28;20030;-41
2021/08/20 00:17:25;;;;;;;18.92;9.35;;;;;;;;;;4993440;28;20042;-42
2021/08/20 00:19:51;;;;;;;20.88;11.07;;;;;;;;;;4994573;28;20037;-42
2021/08/20 00:22:17;;;;;;;15.65;5.53;;;;;;;;;;4994421;28;20391;-42
2021/08/20 00:24:44;;;;;;;11.90;5.53;;;;;;;;;;4994750;28;20034;-42
2021/08/20 00:27:10;;;;;;;15.23;5.25;;;;;;;;;;4994777;28;20022;-42
2021/08/20 00:29:36;;;;;;;15.63;7.85;;;;;;;;;;4994489;28;20230;-42
2021/08/20 00:32:05;;;;;;;11.88;6.22;;;;;;;;;;4994845;28;20105;-43
2021/08/20 00:34:33;;;;;;;15.18;7.60;;;;;;;;;;4994455;28;20037;-42
2021/08/20 00:36:59;;;;;;;15.75;6.38;;;;;;;;;;4994484;28;20475;-42
2021/08/20 00:39:26;;;;;;;13.15;6.07;;;;;;;;;;4994144;28;20037;-42
2021/08/20 00:41:52;;;;;;;16.42;8.45;;;;;;;;;;4994358;28;20085;-42
2021/08/20 00:44:18;;;;;;;13.75;4.82;;;;;;;;;;4994249;28;20050;-42
2021/08/20 00:46:45;;;;;;;20.00;8.93;;;;;;;;;;4994415;28;20030;-40
2021/08/20 00:49:14;;;;;;;16.77;5.70;;;;;;;;;;4994177;28;20113;-42
2021/08/20 00:51:40;;;;;;;10.98;5.60;;;;;;;;;;4994177;28;20077;-43
2021/08/20 00:54:09;;;;;;;8.98;3.72;;;;;;;;;;4994158;28;20030;-43
2021/08/20 00:56:40;;;;;;;15.88;6.20;;;;;;;;;;4994138;28;20023;-42
2021/08/20 00:59:06;;;;;;;9.57;4.63;;;;;;;;;;4994231;28;20029;-42
2021/08/20 01:01:32;;;;;;;11.48;4.90;;;;;;;;;;4994137;28;20040;-43
2021/08/20 01:03:58;;;;;;;12.57;4.78;;;;;;;;;;4994026;28;20479;-42
2021/08/20 01:06:28;;;;;;;16.77;8.13;;;;;;;;;;4994176;28;20027;-43
2021/08/20 01:08:54;;;;;;;27.83;16.75;;;;;;;;;;4993642;28;20045;-42
2021/08/20 01:11:21;;;;;;;16.05;9.25;;;;;;;;;;4994018;28;20102;-43
2021/08/20 01:13:47;;;;;;;18.92;10.05;;;;;;;;;;4993962;28;20037;-42
2021/08/20 01:16:13;;;;;;;40.72;22.17;;;;;;;;;;4993994;28;20383;-43
2021/08/20 01:18:40;;;;;;;13.60;8.20;;;;;;;;;;4993760;28;20033;-42
2021/08/20 01:21:13;;;;;;;20.63;11.32;;;;;;;;;;4993640;28;20053;-43
2021/08/20 01:23:39;;;;;;;18.17;8.85;;;;;;;;;;4993313;28;20023;-42
2021/08/20 01:26:06;;;;;;;11.98;5.97;;;;;;;;;;4993484;28;20061;-43
2021/08/20 01:28:32;;;;;;;28.40;17.10;;;;;;;;;;4993612;28;20023;-43
2021/08/20 01:31:02;;;;;;;13.85;8.25;;;;;;;;;;4993739;28;20034;-43
2021/08/20 01:33:28;;;;;;;32.58;17.90;;;;;;;;;;4993653;28;20026;-43
2021/08/20 01:35:54;;;;;;;23.13;8.27;;;;;;;;;;4992332;28;20030;-43
2021/08/20 01:38:20;;;;;;;11.32;5.32;;;;;;;;;;4993417;28;20077;-43
2021/08/20 01:40:47;;;;;;;11.80;4.25;;;;;;;;;;4993633;28;20046;-44
2021/08/20 01:43:13;;;;;;;14.20;3.42;;;;;;;;;;4993613;28;20125;-42
2021/08/20 01:45:39;;;;;;;11.48;3.60;;;;;;;;;;4993738;28;20390;-43
2021/08/20 01:48:05;;;;;;;12.38;3.78;;;;;;;;;;4993704;28;20061;-42
2021/08/20 01:50:31;;;;;;;9.35;3.75;;;;;;;;;;4993605;28;20030;-43
2021/08/20 01:52:57;;;;;;;8.93;3.00;;;;;;;;;;4993564;28;20105;-44
2021/08/20 01:55:23;;;;;;;9.85;4.28;;;;;;;;;;4993720;28;20479;-43
2021/08/20 01:57:51;;;;;;;10.13;4.00;;;;;;;;;;4993464;28;20037;-42
2021/08/20 02:00:17;;;;;;;10.95;3.58;;;;;;;;;;4993386;28;20046;-44
2021/08/20 02:02:43;;;;;;;7.53;4.03;;;;;;;;;;4993516;28;20031;-44
2021/08/20 02:05:09;;;;;;;10.07;4.35;;;;;;;;;;4992404;28;20043;-42
2021/08/20 02:07:36;;;;;;;6.78;4.30;;;;;;;;;;4993550;28;20029;-42
2021/08/20 02:10:05;;;;;;;10.77;5.03;;;;;;;;;;4993189;28;20566;-42
2021/08/20 02:12:32;;;;;;;9.40;4.00;;;;;;;;;;4993502;28;20036;-42
2021/08/20 02:14:58;;;;;;;15.15;4.47;;;;;;;;;;4993604;28;20030;-42
2021/08/20 02:17:24;;;;;;;10.75;4.18;;;;;;;;;;4993610;28;20022;-44
2021/08/20 02:19:50;;;;;;;10.05;3.90;;;;;;;;;;4993443;28;20033;-43
2021/08/20 02:22:17;;;;;;;9.00;3.83;;;;;;;;;;4993582;28;20034;-43
2021/08/20 02:24:43;;;;;;;5.93;3.60;;;;;;;;;;4991979;28;20471;-44
2021/08/20 02:27:09;;;;;;;6.18;3.75;;;;;;;;;;4993384;28;20026;-43
2021/08/20 02:29:36;;;;;;;10.20;4.00;;;;;;;;;;4993298;28;20030;-43
2021/08/20 02:32:02;;;;;;;7.22;3.72;;;;;;;;;;4993263;28;20030;-43
2021/08/20 02:34:28;;;;;;;7.90;3.50;;;;;;;;;;4993518;28;20100;-41
2021/08/20 02:36:56;;;;;;;10.88;3.38;;;;;;;;;;4996110;28;20022;-43
2021/08/20 02:39:22;;;;;;;10.10;3.65;;;;;;;;;;4996485;28;20046;-43
2021/08/20 02:41:48;;;;;;;10.75;3.38;;;;;;;;;;4996879;28;20423;-43
2021/08/20 02:44:15;;;;;;;8.85;4.15;;;;;;;;;;4996913;28;20038;-43
2021/08/20 02:46:41;;;;;;;6.30;3.88;;;;;;;;;;4996661;28;20034;-43
2021/08/20 02:49:07;;;;;;;11.82;3.88;;;;;;;;;;4996723;28;20022;-43
2021/08/20 02:51:33;;;;;;;11.15;4.32;;;;;;;;;;4996581;28;20445;-43
2021/08/20 02:53:59;;;;;;;11.00;4.30;;;;;;;;;;4996514;28;20022;-43
2021/08/20 02:56:26;;;;;;;15.02;4.90;;;;;;;;;;4995040;28;20049;-43
2021/08/20 02:58:52;;;;;;;9.10;3.95;;;;;;;;;;4996271;28;20383;-43
2021/08/20 03:01:18;;;;;;;9.63;4.60;;;;;;;;;;4996372;28;20092;-42
2021/08/20 03:03:44;;;;;;;9.20;4.50;;;;;;;;;;4996380;28;20022;-41
2021/08/20 03:06:10;;;;;;;14.38;5.28;;;;;;;;;;4996457;28;20026;-41
2021/08/20 03:08:39;;;;;;;11.35;4.43;;;;;;;;;;4995937;28;20030;-43
2021/08/20 03:11:08;;;;;;;10.32;5.10;;;;;;;;;;4996211;28;20035;-43
2021/08/20 03:13:36;;;;;;;11.52;4.75;;;;;;;;;;4996121;28;20442;-43
2021/08/20 03:16:02;;;;;;;6.97;4.10;;;;;;;;;;4996119;28;20022;-43
2021/08/20 03:18:28;;;;;;;8.23;4.80;;;;;;;;;;4996185;28;20030;-43
2021/08/20 03:20:54;;;;;;;9.05;4.43;;;;;;;;;;4995902;28;20390;-43
2021/08/20 03:23:20;;;;;;;7.90;3.92;;;;;;;;;;4995969;28;20019;-48
2021/08/20 03:25:46;;;;;;;11.73;4.82;;;;;;;;;;4996060;28;20030;-48
2021/08/20 03:28:12;;;;;;;15.80;5.25;;;;;;;;;;4995878;28;20113;-48
2021/08/20 03:30:38;;;;;;;11.48;4.68;;;;;;;;;;4996132;28;20451;-42
2021/08/20 03:33:05;;;;;;;9.23;4.72;;;;;;;;;;4995967;28;20084;-42
2021/08/20 03:35:31;;;;;;;19.75;11.88;;;;;;;;;;4996216;28;20030;-42
2021/08/20 03:38:00;;;;;;;20.00;11.82;;;;;;;;;;4995653;28;20470;-42
2021/08/20 03:40:26;;;;;;;36.92;19.85;;;;;;;;;;4995509;28;20587;-42
2021/08/20 03:42:55;;;;;;;22.40;11.43;;;;;;;;;;4995554;28;20053;-42
2021/08/20 03:45:22;;;;;;;16.92;7.85;;;;;;;;;;4996064;28;20030;-42
2021/08/20 03:47:48;;;;;;;11.35;5.78;;;;;;;;;;4994814;28;20050;-42
2021/08/20 03:50:15;;;;;;;13.13;5.35;;;;;;;;;;4995512;28;20049;-43
2021/08/20 03:52:41;;;;;;;10.43;5.75;;;;;;;;;;4995427;28;20022;-42
2021/08/20 03:55:07;;;;;;;20.40;8.35;;;;;;;;;;4995312;28;20105;-41
2021/08/20 03:57:33;;;;;;;23.67;11.07;;;;;;;;;;4995392;28;20034;-45
2021/08/20 03:59:59;;;;;;;20.00;9.52;;;;;;;;;;4995495;28;20058;-42
2021/08/20 04:02:26;;;;;;;25.20;12.20;;;;;;;;;;4995253;28;20038;-43
2021/08/20 04:04:54;;;;;;;19.67;8.68;;;;;;;;;;4995290;28;20117;-42
2021/08/20 04:07:20;;;;;;;19.77;7.40;;;;;;;;;;4995173;28;20025;-44
2021/08/20 04:09:46;;;;;;;14.75;6.95;;;;;;;;;;4994863;28;20521;-43
2021/08/20 04:12:13;;;;;;;13.88;6.60;;;;;;;;;;4995045;28;20035;-43
2021/08/20 04:14:39;;;;;;;12.73;5.55;;;;;;;;;;4995003;28;20478;-46
2021/08/20 04:17:05;;;;;;;15.68;7.05;;;;;;;;;;4995041;28;20386;-44
2021/08/20 04:19:31;;;;;;;19.00;8.10;;;;;;;;;;4995294;28;20049;-45
2021/08/20 04:21:57;;;;;;;19.17;6.22;;;;;;;;;;4995224;28;20110;-43
2021/08/20 04:24:24;;;;;;;14.48;6.47;;;;;;;;;;4995264;28;20033;-40
2021/08/20 04:26:50;;;;;;;14.73;7.10;;;;;;;;;;4993752;28;20477;-39
2021/08/20 04:29:16;;;;;;;23.40;9.63;;;;;;;;;;4994842;28;20033;-43
2021/08/20 04:31:42;;;;;;;21.88;10.30;;;;;;;;;;4994606;28;20374;-44
2021/08/20 04:34:08;;;;;;;12.25;6.97;;;;;;;;;;4994566;28;20036;-43
2021/08/20 04:36:34;;;;;;;13.43;7.65;;;;;;;;;;4994975;28;20025;-44
2021/08/20 04:39:00;;;;;;;21.75;8.05;;;;;;;;;;4994396;28;20088;-43
2021/08/20 04:41:26;;;;;;;28.77;10.25;;;;;;;;;;4994467;28;20038;-44
2021/08/20 04:43:52;;;;;;;16.33;7.65;;;;;;;;;;4994415;28;20027;-43
2021/08/20 04:46:18;;;;;;;18.02;9.27;;;;;;;;;;4994530;28;20058;-43
2021/08/20 04:48:44;;;;;;;12.50;6.38;;;;;;;;;;4994581;28;20026;-45
2021/08/20 04:51:13;;;;;;;16.27;5.82;;;;;;;;;;4994300;28;20084;-44
2021/08/20 04:53:40;;;;;;;18.15;5.35;;;;;;;;;;4994264;28;20047;-45
2021/08/20 04:56:06;;;;;;;20.45;5.75;;;;;;;;;;4994127;28;20054;-44
2021/08/20 04:58:35;;;;;;;14.18;7.05;;;;;;;;;;4993584;28;20101;-45
2021/08/20 05:01:02;;;;;;;17.17;6.22;;;;;;;;;;4994066;28;20117;-44
2021/08/20 05:03:28;;;;;;;15.40;6.50;;;;;;;;;;4994143;28;20030;-42
2021/08/20 05:05:54;;;;;;;20.20;7.50;;;;;;;;;;4994075;28;20037;-42
2021/08/20 05:08:21;;;;;;;11.20;5.53;;;;;;;;;;4993998;28;20081;-44
2021/08/20 05:10:47;;;;;;;17.77;6.32;;;;;;;;;;4993781;28;20061;-42
2021/08/20 05:13:14;;;;;;;14.70;5.88;;;;;;;;;;4993975;28;20517;-42
2021/08/20 05:15:40;;;;;;;22.23;7.38;;;;;;;;;;4994190;28;20038;-43
2021/08/20 05:18:07;;;;;;;17.75;6.15;;;;;;;;;;4993946;28;20018;-42
2021/08/20 05:20:33;;;;;;;17.92;5.70;;;;;;;;;;4993956;28;20030;-42
2021/08/20 05:22:59;;;;;;;19.98;6.38;;;;;;;;;;4994066;28;20022;-42
2021/08/20 05:25:26;;;;;;;14.38;6.07;;;;;;;;;;4994013;28;20363;-43
2021/08/20 05:27:53;;;;;;;16.02;6.13;;;;;;;;;;4993970;28;20033;-43
2021/08/20 05:30:19;;;;;;;14.25;5.80;;;;;;;;;;4993801;28;20049;-43
2021/08/20 05:32:45;;;;;;;18.58;5.60;;;;;;;;;;4993787;28;20401;-44
2021/08/20 05:35:12;;;;;;;12.43;4.72;;;;;;;;;;4993769;28;20054;-43
2021/08/20 05:37:38;;;;;;;12.52;4.85;;;;;;;;;;4993850;28;20046;-43
2021/08/20 05:40:05;;;;;;;13.75;5.28;;;1305.90;486.40;;;;;;4993559;28;20030;-44
2021/08/20 05:42:31;;;;;;;7.65;4.00;;;1331.40;512.00;;;;;;4993642;28;20058;-43
2021/08/20 05:44:57;;;;;;;8.73;3.72;;;1356.90;537.60;;;;;;4993561;28;20124;-43
2021/08/20 05:47:23;;;;;;;9.40;3.83;;;1331.90;512.00;;;;;;4993791;28;20026;-43
2021/08/20 05:49:50;;;;;;;7.05;3.30;;;1306.40;486.40;;;;;;4993766;28;20483;-43
2021/08/20 05:52:16;;;;;;;5.72;3.72;;;;;;;;;;4993820;28;20033;-43
2021/08/20 05:54:42;;;;;;;4.90;3.65;;;;;;;;;;4993754;28;20097;-44
2021/08/20 05:57:08;;;;;;;5.47;3.45;;;;;;;;;;4993545;28;20023;-43
2021/08/20 05:59:34;;;;;;;4.18;3.38;;;;;;;;;;4993818;28;20069;-43
2021/08/20 06:02:00;;;;;;;6.32;4.70;;;;;;;;;;4993424;28;20050;-43
2021/08/20 06:04:26;;;;;;;7.95;3.35;;;;;;;;;;4994031;28;20023;-43
2021/08/20 06:06:52;;;;;;;6.45;3.38;;;1306.10;486.40;;;;;;4993501;28;20497;-43
2021/08/20 06:09:18;;;;;;;7.53;4.28;;;;;;;;;;4993304;28;20058;-43
2021/08/20 06:11:44;;;;;;;4.30;3.60;;;;;;;;;;4996167;28;20471;-43
2021/08/20 06:14:11;;;;;;;8.68;4.40;;;;;;;;;;4997260;28;20034;-43
2021/08/20 06:16:37;;;;;;;12.48;4.75;;;;;;;;;;4997425;28;20026;-43
2021/08/20 06:19:03;;;;;;;8.43;4.50;;;;;;;;;;4997080;28;20030;-43
2021/08/20 06:21:29;;;;;;;5.20;3.90;;;;;;;;;;4997084;28;20042;-42
2021/08/20 06:23:55;;;;;;;12.98;3.95;;;;;;;;;;4997368;28;20021;-42
2021/08/20 06:26:21;;;;;;;8.77;4.10;;;;;;;;;;4997003;28;20030;-43
2021/08/20 06:28:47;;;;;;;4.15;2.42;;;;;;;;;;4997009;28;20027;-43
2021/08/20 06:31:13;;;;;;;8.00;3.17;;;;;;;;;;4996912;28;20030;-43
2021/08/20 06:33:39;;;;;;;11.57;2.95;;;;;;;;;;4996822;28;20030;-43
2021/08/20 06:36:06;;;;;;;6.63;3.22;;;;;;;;;;4997029;28;20026;-42
2021/08/20 06:38:32;;;;;;;10.07;3.35;;;;;;;;;;4996856;28;20533;-43
2021/08/20 06:40:58;;;;;;;9.60;3.05;;;;;;;;;;4996548;28;20387;-42
2021/08/20 06:43:24;;;;;;;9.48;3.42;;;;;;;;;;4996472;28;20030;-42
2021/08/20 06:45:51;;;;;;;14.93;3.20;;;;;;;;;;4996668;28;20482;-43
2021/08/20 06:48:17;;;;;;;9.20;2.92;;;;;;;;;;4996633;28;20400;-43
2021/08/20 06:50:43;;;;;;;6.85;2.55;;;;;;;;;;4996633;28;20022;-42
2021/08/20 06:53:10;;;;;;;6.63;2.47;;;;;;;;;;4996569;28;20027;-42
2021/08/20 06:55:38;;;;;;;5.05;2.08;;;;;;;;;;4996394;28;20033;-42
2021/08/20 06:58:04;;;;;;;6.63;2.60;;;;;;;;;;4996448;28;20025;-43
2021/08/20 07:00:30;;;;;;;5.93;2.25;;;;;;;;;;4996551;28;20374;-42
2021/08/20 07:02:59;;;;;;;8.48;2.40;;;;;;;;;;4996347;28;20023;-43
2021/08/20 07:05:27;;;;;;;5.45;2.28;;;;;;;;;;4996467;28;20401;-43
2021/08/20 07:07:53;;;;;;;3.67;2.00;;;;;;;;;;4996489;28;20467;-44
2021/08/20 07:10:19;;;;;;;3.20;2.08;;;;;;;;;;4995904;28;20050;-43
2021/08/20 07:12:45;;;;;;;2.97;1.63;;;;;;;;;;4996093;28;20054;-44
2021/08/20 07:15:12;;;;;;;8.32;2.63;;;;;;;;;;4996389;28;20414;-43
2021/08/20 07:17:39;;;;;;;4.38;2.40;;;;;;;;;;4996245;28;20018;-42
2021/08/20 07:20:06;;;;;;;4.18;1.80;;;;;;;;;;4996406;28;20014;-42
2021/08/20 07:22:32;;;;;;;5.47;2.60;;;;;;;;;;4995102;28;20031;-42
2021/08/20 07:24:58;;;;;;;4.53;2.00;;;;;;;;;;4996152;28;20038;-42
2021/08/20 07:27:25;;;;;;;6.05;1.67;;;;;;;;;;4996170;28;20022;-42
2021/08/20 07:29:51;;;;;;;4.82;1.80;;;;;;;;;;4996149;28;20030;-43
2021/08/20 07:32:17;;;;;;;2.83;2.00;;;;;;;;;;4996269;28;20494;-42
2021/08/20 07:34:43;;;;;;;3.85;1.65;;;;;;;;;;4996222;28;20027;-43
2021/08/20 07:37:09;;;;;;;3.58;1.42;;;;;;;;;;4996215;28;20026;-43
2021/08/20 07:39:39;;;;;;;2.83;1.50;;;;;;;;;;4995753;28;20054;-43
2021/08/20 07:42:05;;;;;;;4.38;1.80;;;;;;;;;;4995758;28;20042;-42
2021/08/20 07:44:32;;;;;;;7.43;1.88;;;;;;;;;;4995974;28;20537;-43
2021/08/20 07:46:58;;;;;;;4.32;1.50;;;;;;;;;;4995838;28;20103;-43
2021/08/20 07:49:24;;;;;;;8.70;4.82;;;;;;;;;;4995863;28;20077;-43
2021/08/20 07:51:51;;;;;;;2.17;1.45;;;;;;;;;;4995675;28;20022;-43
2021/08/20 07:54:19;;;;;;;2.25;1.65;;;;;;;;;;4995382;28;20109;-43
2021/08/20 07:56:47;;;;;;;3.75;1.80;;;;;;;;;;4995088;28;20098;-43
2021/08/20 07:59:16;;;;;;;3.97;1.40;;;;;;;;;;4994964;28;20050;-43
2021/08/20 08:01:42;;;;;;;3.78;1.63;;;;;;;;;;4994929;28;20043;-43
2021/08/20 08:04:08;;;;;;;4.97;1.50;;;;;;;;;;4995045;28;20014;-43
2021/08/20 08:06:35;;;;;;;2.40;1.27;;;;;;;;;;4994933;28;20054;-42
2021/08/20 08:09:01;;;;;;;6.70;1.40;;;;;;;;;;4992033;28;20046;-43
2021/08/20 08:11:36;;;;;;;6.10;1.63;;;;;;;;;;4994746;28;20033;-43
2021/08/20 08:14:04;;;;;;;1.80;1.55;;;;;;;;;;4992482;28;20018;-43
2021/08/20 08:16:34;;;;;;;4.55;1.48;;;;;;;;;;4994930;28;20074;-42
2021/08/20 08:19:00;;;;;;;2.40;1.50;;;;;;;;;;4994615;28;20019;-44
2021/08/20 08:21:26;;;;;;;3.30;1.60;;;;;;;;;;4994502;28;20299;-44
2021/08/20 08:23:53;;;;;;;5.63;4.15;;;;;;;;;;4994582;28;20029;-44
2021/08/20 08:26:23;;;;;;;1.98;1.75;;;;;;;;;;4994199;28;20173;-43
2021/08/20 08:28:49;;;;;;;2.23;1.60;;;;;;;;;;4994442;28;20028;-44
2021/08/20 08:31:15;;;;;;;4.15;1.30;;;;;;;;;;4994385;28;20060;-45
2021/08/20 08:33:41;;;;;;;2.58;1.45;;;;;;;;;;4994203;28;20029;-45
2021/08/20 08:36:07;;;;;;;3.53;1.95;;;;;;;;;;4994320;28;20479;-44
2021/08/20 08:38:33;;;;;;;5.53;3.60;;;;;;;;;;4994036;28;20082;-45
2021/08/20 08:41:02;;;;;;;5.05;2.97;;;;;;;;;;4993924;28;20042;-44
2021/08/20 08:43:28;;;;;;;3.35;2.00;;;;;;;;;;4994156;28;20094;-44
2021/08/20 08:45:55;;;;;;;10.20;7.47;;;;;;;;;;4994089;28;20092;-43
2021/08/20 08:48:25;;;;;;;5.47;1.63;;;;;;;;;;4993945;28;20019;-43
2021/08/20 08:50:52;;;;;;;3.17;1.33;;;;;;;;;;4994167;28;20022;-42
2021/08/20 08:53:19;;;;;;;3.95;1.50;;;;;;;;;;4994085;28;20046;-41
2021/08/20 08:55:49;;;;;;;3.72;1.50;;;;;;;;;;4993674;28;20050;-42
2021/08/20 08:58:15;;;;;;;2.40;1.50;;;;;;;;;;4994123;28;20101;-44
2021/08/20 09:00:42;;;;;;;2.35;1.13;;;;;;;;;;4993828;28;20054;-46
2021/08/20 09:03:08;;;;;;;1.35;1.13;;;;;;;;;;4994015;28;20036;-45
2021/08/20 09:05:44;;;;;;;1.70;1.35;;;;;;;;;;4993812;28;20033;-46
2021/08/20 09:08:14;;;;;;;2.13;1.27;;;;;;;;;;4991645;28;20053;-44
2021/08/20 09:10:59;;;;;;;4.47;3.20;;;;;;;;;;4993856;28;20058;-45
2021/08/20 09:13:26;;;;;;;33.33;22.52;;;;;;;;;;4994231;28;20022;-46
2021/08/20 09:16:05;;;;;;;11.80;7.82;;;;;;;;;;4994003;28;20026;-53
2021/08/20 09:18:31;;;;;;;4.72;3.15;;;;;;;;;;4994163;28;20026;-47
2021/08/20 09:20:57;;;;;;;16.95;12.35;;;;;;;;;;4993857;28;20026;-46
2021/08/20 09:23:25;;;;;;;9.43;5.95;;;;;;;;;;4994139;28;20060;-47
2021/08/20 09:25:53;;;;;;;2.05;1.67;;;;;;;;;;4993932;28;20482;-46
2021/08/20 09:28:28;;;;;;;4.63;2.85;;;;;;;;;;4993867;28;20034;-44
2021/08/20 09:30:54;;;;;;;16.50;12.13;;;;;;;;;;4993937;28;20509;-46
2021/08/20 09:33:21;;;;;;;9.38;5.20;;;;;;;;;;4993736;28;20360;-46
2021/08/20 09:35:55;;;;;;;5.03;3.55;;;;;;;;;;4993840;28;20377;-46
2021/08/20 09:38:21;;;;;;;2.30;1.38;;;;;;;;;;4993734;28;20160;-45
2021/08/20 09:40:52;;;;;;;3.10;1.75;;;;;;;;;;4993634;28;20479;-45
2021/08/20 09:43:25;;;;;;;5.50;2.47;;;;;;;;;;4993733;28;20022;-46
2021/08/20 09:45:59;;;;;;;2.35;1.05;;;;;;;;;;4995216;28;20018;-44
2021/08/20 09:48:45;;;;;;;2.15;1.80;;;;;;;;;;4997505;28;20025;-44
2021/08/20 09:51:15;;;;;;;2.88;2.03;;;;;;;;;;4997566;28;20144;-45
2021/08/20 09:53:56;;;;;;;3.03;1.35;;;;;;;;;;4997705;28;20026;-45
2021/08/20 09:56:22;;;;;;;2.95;1.42;;;;;;;;;;4997595;28;20466;-45
2021/08/20 09:58:48;;;;;;;4.97;3.45;;;;;;;;;;4997439;28;20092;-43
2021/08/20 10:01:14;;;;;;;3.30;1.20;;;;;;;;;;4997548;28;20042;-44
2021/08/20 10:03:40;;;;;;;1.92;1.40;;;;;;;;;;4997517;28;20025;-46
2021/08/20 10:06:06;;;;;;;5.07;1.77;;;;;;;;;;4997385;28;20495;-46
2021/08/20 10:08:33;;;;;;;5.53;3.92;;;;;;;;;;4997207;28;20030;-47
2021/08/20 10:10:59;;;;;;;6.22;2.78;;;;;;;;;;4997355;28;20139;-46
2021/08/20 10:13:27;;;;;;;2.38;1.52;;;;;;;;;;4997348;28;20026;-43
2021/08/20 10:15:56;;;;;;;2.03;1.50;;;;;;;;;;4997210;28;20383;-45
2021/08/20 10:18:22;;;;;;;4.40;1.27;;;;;;;;;;4997260;28;20382;-44
2021/08/20 10:20:49;;;;;;;7.47;4.25;;;;;;;;;;4996914;28;20026;-45
2021/08/20 10:23:16;;;;;;;8.05;4.57;;;;;;;;;;4997115;28;20106;-45
2021/08/20 10:25:42;;;;;;;10.85;6.47;;;;;;;;;;4997010;28;20027;-44
2021/08/20 10:28:11;;;;;;;2.63;1.88;;;;;;;;;;4996931;28;20022;-44
2021/08/20 10:30:38;;;;;;;19.25;12.48;;;;;;;;;;4997041;28;20026;-45
2021/08/20 10:33:05;;;;;;;32.35;21.98;;;;;;;;;;4995801;28;20045;-44
2021/08/20 10:35:50;;;;;;;14.63;11.25;;;;;;;;;;4997056;28;20027;-44
2021/08/20 10:38:25;;;;;;;9.32;3.83;;;;;;;;;;4996755;28;20430;-42
2021/08/20 10:41:06;;;;;;;6.38;2.42;;;;;;;;;;4996458;28;20066;-43
2021/08/20 10:43:51;;;;;;;3.17;2.47;;;;;;;;;;4996674;28;20029;-43
2021/08/20 10:46:36;;;;;;;1.02;0.93;;;;;;;;;;4996683;28;20034;-45
2021/08/20 10:49:19;;;;;;;2.20;1.45;;;;;;;;;;4996550;28;20050;-43
2021/08/20 10:51:51;;;;;;;3.42;1.38;;;;;;;;;;4996719;28;20441;-45
2021/08/20 10:54:21;;;;;;;5.03;1.73;;;;;;;;;;4996498;28;20114;-44
2021/08/20 10:56:48;;;;;;;2.35;1.42;;;;;;;;;;4996261;28;20041;-44
2021/08/20 10:59:32;;;;;;;1.80;1.08;;;;;;;;;;4996428;28;20499;-45
2021/08/20 11:02:20;;;;;;;3.15;1.92;;;;;;;;;;4996297;28;20080;-44
2021/08/20 11:04:56;;;;;;;2.25;2.05;;;;;;;;;;4996292;28;20438;-44
2021/08/20 11:07:35;;;;;;;2.35;1.77;;;;;;;;;;4996433;28;20062;-44
2021/08/20 11:10:12;;;;;;;5.05;1.80;;;;;;;;;;4995948;28;20046;-45
2021/08/20 11:12:42;;;;;;;6.35;2.47;;;;;;;;;;4996308;28;20040;-44
2021/08/20 11:15:23;;;;;;;9.43;4.28;;;;;;;;;;4996090;28;20534;-43
2021/08/20 11:17:52;;;;;;;8.57;2.30;;;;;;;;;;4996057;28;20026;-43
2021/08/20 11:20:38;;;;;;;1.98;1.40;;;;;;;;;;4996159;28;20121;-41
2021/08/20 11:23:13;;;;;;;3.65;1.85;;;;;;;;;;4995348;28;20042;-42
2021/08/20 11:26:05;;;;;;;2.38;1.35;;;;;;;;;;4995803;28;20035;-42
2021/08/20 11:28:40;;;;;;;8.32;6.28;;;;;;;;;;4995698;28;20042;-44
2021/08/20 11:31:10;;;;;;;7.97;5.07;;;;;;;;;;4995768;28;20114;-44
2021/08/20 11:33:41;;;;;;;8.20;5.50;;;;;;;;;;4995871;28;20027;-42
2021/08/20 11:36:16;;;;;;;8.32;5.88;;;;;;;;;;4995862;28;20026;-41
2021/08/20 11:38:46;;;;;;;12.20;5.30;;;;;;;;;;4995768;28;20026;-41
2021/08/20 11:41:23;;;;;;;6.57;2.75;;;;;;;;;;4995571;28;20030;-43
2021/08/20 11:43:53;;;;;;;3.80;2.13;;;;;;;;;;4995643;28;20491;-43
2021/08/20 11:46:20;;;;;;;5.32;2.65;;;;;;;;;;4995882;28;20053;-43
2021/08/20 11:48:49;;;;;;;23.92;18.92;;;;;;;;;;4995049;28;20093;-42
2021/08/20 11:51:36;;;;;;;102.70;69.55;;;;;;;;;;4995137;28;20036;-43
2021/08/20 11:54:08;;;;;;;5.32;3.42;;;;;;;;;;4994795;28;20072;-43
2021/08/20 11:56:35;;;;;;;18.92;13.25;;;;;;;;;;4994878;28;20037;-43
2021/08/20 11:59:08;;;;;;;5.97;3.72;;;;;;;;;;4995134;28;20044;-42
2021/08/20 12:01:37;;;;;;;7.55;4.68;;;;;;;;;;4994821;28;20038;-43
2021/08/20 12:04:04;;;;;;;3.10;2.00;;;;;;;;;;4995079;28;20037;-43
2021/08/20 12:06:30;;;;;;;5.97;1.98;;;;;;;;;;4995090;28;20018;-43
2021/08/20 12:09:07;;;;;;;16.27;6.47;;;;;;;;;;4993813;28;20066;-42
2021/08/20 12:11:33;;;;;;;2.83;2.05;;;;;;;;;;4994732;28;20034;-43
2021/08/20 12:13:59;;;;;;;3.10;1.75;;;;;;;;;;4994738;28;20025;-44
2021/08/20 12:16:39;;;;;;;2.25;1.95;;;;;;;;;;4995049;28;20052;-43
2021/08/20 12:19:25;;;;;;;17.42;12.80;;;;;;;;;;4992693;28;20029;-43
2021/08/20 12:22:11;;;;;;;47.33;36.13;;;;;;;;;;4993260;28;20034;-43
2021/08/20 12:24:38;;;;;;;98.15;75.35;;;;;;;;;;4994117;28;20073;-44
2021/08/20 12:27:22;;;;;;;56.88;45.00;;;;;;;;;;4994425;28;20033;-43
2021/08/20 12:29:58;;;;;;;19.58;13.82;;;;;;;;;;4992939;28;20011;-43
2021/08/20 12:32:24;;;;;;;26.05;18.58;;;;;;;;;;4992286;28;20058;-44
2021/08/20 12:35:00;;;;;;;15.98;8.52;;;;;;;;;;4994374;28;20515;-43
2021/08/20 12:37:27;;;;;;;2.15;1.80;;;;;;;;;;4992586;28;20026;-44
2021/08/20 12:40:06;;;;;;;3.63;1.98;;;;;;;;;;4994194;28;20050;-42
2021/08/20 12:42:33;;;;;;;8.40;1.48;;;;;;;;;;4993072;28;20042;-43
2021/08/20 12:45:14;;;;;;;4.22;1.02;;;;;;;;;;4994188;28;20022;-42
2021/08/20 12:47:41;;;;;;;3.15;1.55;;;;;;;;;;4991666;28;20076;-43
2021/08/20 12:50:08;;;;;;;3.15;1.80;;;;;;;;;;4992809;28;20414;-43
2021/08/20 12:52:37;;;;;;;2.92;1.30;;;;;;;;;;4994179;28;20244;-43
2021/08/20 12:55:22;;;;;;;4.35;1.45;;;;;;;;;;4991780;28;20402;-42
2021/08/20 12:57:49;;;;;;;2.17;1.27;;;;;;;;;;4992275;28;20482;-43
2021/08/20 13:00:17;;;;;;;4.15;1.92;;;;;;;;;;4993948;28;20030;-43
2021/08/20 13:02:43;;;;;;;22.38;14.07;;;;;;;;;;4991604;28;20383;-44
2021/08/20 13:05:10;;;;;;;29.05;17.27;;;;;;;;;;4993874;28;20038;-42
2021/08/20 13:07:36;;;;;;;17.80;10.15;;;;;;;;;;4993684;28;20018;-43
2021/08/20 13:10:02;;;;;;;27.02;9.93;;;;;;;;;;4993229;28;20046;-43
2021/08/20 13:12:28;;;;;;;16.70;10.77;;;;;;;;;;4993659;28;20486;-42
2021/08/20 13:14:54;;;;;;;10.63;6.30;;;;;;;;;;4993566;28;20023;-43
2021/08/20 13:17:20;;;;;;;4.47;3.58;;;;;;;;;;4993811;28;20387;-43
2021/08/20 13:19:46;;;;;;;4.38;2.65;;;;;;;;;;4993024;28;20141;-41
2021/08/20 13:22:12;;;;;;;5.72;2.60;;;;;;;;;;4993275;28;20490;-43
2021/08/20 13:24:39;;;;;;;4.60;2.08;;;;;;;;;;4993503;28;20069;-43
2021/08/20 13:27:09;;;;;;;3.75;1.52;;;;;;;;;;4993448;28;20037;-43
2021/08/20 13:29:35;;;;;;;2.30;1.73;;;;;;;;;;4993388;28;20105;-44
2021/08/20 13:32:01;;;;;;;3.88;1.63;;;;;;;;;;4993549;28;20426;-43
2021/08/20 13:34:27;;;;;;;1.45;1.20;;;;;;;;;;4993505;28;20045;-43
2021/08/20 13:36:53;;;;;;;8.45;3.72;;;;;;;;;;4994017;28;20030;-42
2021/08/20 13:39:19;;;;;;;9.23;3.08;;;;;;;;;;4993149;28;20502;-42
2021/08/20 13:41:46;;;;;;;8.40;3.97;;;;;;;;;;4993226;28;20049;-43
2021/08/20 13:44:14;;;;;;;7.32;4.93;;;;;;;;;;4993231;28;20097;-43
2021/08/20 13:46:40;;;;;;;27.23;18.90;;;;;;;;;;4993385;28;20019;-42
2021/08/20 13:49:07;;;;;;;64.18;47.80;;;;;;;;;;4993332;28;20014;-42
2021/08/20 13:51:33;;;;;;;26.42;19.08;;;;;;;;;;4993213;28;20018;-43
2021/08/20 13:54:00;;;;;;;9.23;7.43;;;;;;;;;;4993177;28;20029;-43
2021/08/20 13:56:26;;;;;;;5.85;2.03;;;;;;;;;;4993171;28;20023;-43
2021/08/20 13:58:53;;;;;;;1.75;1.02;;;;;;;;;;4993215;28;20521;-43
2021/08/20 14:01:21;;;;;;;4.10;1.50;;;;;;;;;;4993567;28;20026;-42
2021/08/20 14:03:47;;;;;;;1.30;1.20;;;;;;;;;;4993313;28;20379;-43
2021/08/20 14:06:13;;;;;;;2.67;1.08;;;;;;;;;;4993697;28;20018;-42
2021/08/20 14:08:39;;;;;;;8.18;1.85;;;;;;;;;;4992933;28;20022;-43
2021/08/20 14:11:06;;;;;;;4.00;1.50;;;;;;;;;;4993300;28;20030;-43
2021/08/20 14:13:32;;;;;;;17.63;11.68;;;;;;;;;;4993408;28;20025;-43
2021/08/20 14:15:58;;;;;;;6.97;1.55;;;;;;;;;;4993532;28;20026;-43
2021/08/20 14:18:25;;;;;;;2.47;1.58;;;;;;;;;;4993237;28;20038;-44
2021/08/20 14:20:51;;;;;;;24.02;12.02;;;;;;;;;;4992967;28;20030;-42
2021/08/20 14:23:17;;;;;;;21.30;12.88;;;;;;;;;;4992986;28;20540;-44
2021/08/20 14:25:44;;;;;;;29.77;22.73;;;;;;;;;;4992881;28;20031;-42
2021/08/20 14:28:10;;;;;;;11.10;7.00;;;;;;;;;;4992866;28;20038;-42
2021/08/20 14:30:36;;;;;;;3.47;2.05;;;;;;;;;;4992959;28;20015;-42
2021/08/20 14:33:03;;;;;;;6.63;3.25;;;;;;;;;;4996143;28;20046;-44
2021/08/20 14:35:32;;;;;;;8.82;4.95;;;;;;;;;;4996768;28;20030;-43
2021/08/20 14:37:58;;;;;;;4.80;1.77;;;;;;;;;;4993978;28;20105;-42